Fishers Island, New York
Current Conditions -  °F | °C
As of 10:56 PM on Wednesday 26 Nov 2014 (Local Time) from KGON Reporting Station
Haze Haze  
Wind Chill: 24°   Ceiling: 3800
Heat Index: 35°   Visibility: 4mi
Dew Point: 35°   Wind: 22mph
Humidity: 100%   Direction: 350°N
Pressure: 29.65"   Gusts: 29mph
Location:  41.26°N, 72.02°W
Report Text: KGON 270356Z AUTO 35019G25KT 4SM UP BR SCT012 SCT018 OVC038 02/02 A2965 RMK AO2 PK WND 01027/0323 UPB24E29B55RAB29E55SNE24 SLP041 P0000 T00170017
Loading
Personal Weather Stations






























Interactive Weather Map New forecast layout! Learn more

10-Day Weather Forecast

Advertisements
Track Severe Weather on mobile